sensor_id;sensor_type;location;lat;lon;timestamp;pressure;altitude;pressure_sealevel;temperature;humidity
63405;BME280;49541;57.840;12.306;2023-06-14T00:01:43;101275.03;;;17.03;48.08
63405;BME280;49541;57.840;12.306;2023-06-14T00:06:45;101279.03;;;16.99;48.55
63405;BME280;49541;57.840;12.306;2023-06-14T00:11:46;101285.00;;;16.49;49.84
63405;BME280;49541;57.840;12.306;2023-06-14T00:16:46;101287.53;;;16.68;48.96
63405;BME280;49541;57.840;12.306;2023-06-14T00:21:47;101291.31;;;16.40;49.61
63405;BME280;49541;57.840;12.306;2023-06-14T00:26:47;101293.56;;;16.26;50.39
63405;BME280;49541;57.840;12.306;2023-06-14T00:31:48;101299.06;;;16.43;50.27
63405;BME280;49541;57.840;12.306;2023-06-14T00:36:48;101299.38;;;15.76;51.24
63405;BME280;49541;57.840;12.306;2023-06-14T00:41:48;101293.28;;;15.84;51.20
63405;BME280;49541;57.840;12.306;2023-06-14T00:46:48;101299.88;;;15.62;52.57
63405;BME280;49541;57.840;12.306;2023-06-14T00:51:48;101287.28;;;15.62;52.30
63405;BME280;49541;57.840;12.306;2023-06-14T00:56:49;101286.78;;;15.76;51.97
63405;BME280;49541;57.840;12.306;2023-06-14T01:01:49;101288.84;;;15.55;52.02
63405;BME280;49541;57.840;12.306;2023-06-14T01:06:53;101288.84;;;15.27;53.20
63405;BME280;49541;57.840;12.306;2023-06-14T01:12:00;101291.09;;;15.32;52.08
63405;BME280;49541;57.840;12.306;2023-06-14T01:17:05;101284.28;;;15.00;51.58
63405;BME280;49541;57.840;12.306;2023-06-14T01:22:05;101283.00;;;15.04;52.71
63405;BME280;49541;57.840;12.306;2023-06-14T01:27:05;101276.88;;;15.12;52.45
63405;BME280;49541;57.840;12.306;2023-06-14T01:32:07;101288.69;;;14.72;54.63
63405;BME280;49541;57.840;12.306;2023-06-14T01:37:07;101299.28;;;14.73;54.32
63405;BME280;49541;57.840;12.306;2023-06-14T01:42:08;101297.03;;;14.59;54.77
63405;BME280;49541;57.840;12.306;2023-06-14T01:47:09;101301.84;;;14.65;54.71
63405;BME280;49541;57.840;12.306;2023-06-14T01:52:09;101297.59;;;14.63;55.46
63405;BME280;49541;57.840;12.306;2023-06-14T01:57:10;101301.53;;;14.68;54.32
63405;BME280;49541;57.840;12.306;2023-06-14T02:02:10;101305.47;;;14.64;53.23
63405;BME280;49541;57.840;12.306;2023-06-14T02:07:10;101303.63;;;14.16;54.07
63405;BME280;49541;57.840;12.306;2023-06-14T02:12:10;101306.56;;;14.13;54.75
63405;BME280;49541;57.840;12.306;2023-06-14T02:17:11;101302.75;;;13.96;55.52
63405;BME280;49541;57.840;12.306;2023-06-14T02:22:11;101305.47;;;14.16;55.14
63405;BME280;49541;57.840;12.306;2023-06-14T02:27:12;101293.72;;;13.87;55.50
63405;BME280;49541;57.840;12.306;2023-06-14T02:32:12;101301.94;;;13.65;56.97
63405;BME280;49541;57.840;12.306;2023-06-14T02:37:12;101295.69;;;13.45;56.79
63405;BME280;49541;57.840;12.306;2023-06-14T02:42:13;101303.81;;;13.74;54.76
63405;BME280;49541;57.840;12.306;2023-06-14T02:47:13;101296.81;;;13.42;55.11
63405;BME280;49541;57.840;12.306;2023-06-14T02:52:13;101295.69;;;13.45;57.20
63405;BME280;49541;57.840;12.306;2023-06-14T02:57:13;101305.63;;;13.64;56.60
63405;BME280;49541;57.840;12.306;2023-06-14T03:02:13;101303.66;;;13.35;57.99
63405;BME280;49541;57.840;12.306;2023-06-14T03:07:14;101305.91;;;13.30;58.71
63405;BME280;49541;57.840;12.306;2023-06-14T03:12:19;101308.47;;;13.41;58.67
63405;BME280;49541;57.840;12.306;2023-06-14T03:17:20;101307.09;;;13.47;58.56
63405;BME280;49541;57.840;12.306;2023-06-14T03:22:21;101307.88;;;13.38;59.38
63405;BME280;49541;57.840;12.306;2023-06-14T03:27:21;101315.69;;;13.50;58.90
63405;BME280;49541;57.840;12.306;2023-06-14T03:32:22;101313.38;;;13.36;57.54
63405;BME280;49541;57.840;12.306;2023-06-14T03:37:22;101324.19;;;13.14;58.33
63405;BME280;49541;57.840;12.306;2023-06-14T03:42:22;101320.69;;;13.34;59.58
63405;BME280;49541;57.840;12.306;2023-06-14T03:47:22;101328.19;;;13.81;57.89
63405;BME280;49541;57.840;12.306;2023-06-14T03:52:23;101330.66;;;13.53;56.08
63405;BME280;49541;57.840;12.306;2023-06-14T03:57:23;101332.16;;;13.46;52.04
63405;BME280;49541;57.840;12.306;2023-06-14T04:02:23;101335.06;;;13.12;55.80
63405;BME280;49541;57.840;12.306;2023-06-14T04:07:23;101324.94;;;13.37;55.25
63405;BME280;49541;57.840;12.306;2023-06-14T04:12:24;101338.75;;;13.42;52.75
63405;BME280;49541;57.840;12.306;2023-06-14T04:17:25;101339.41;;;13.65;52.15
63405;BME280;49541;57.840;12.306;2023-06-14T04:22:25;101337.22;;;13.89;52.53
63405;BME280;49541;57.840;12.306;2023-06-14T04:27:28;101345.75;;;14.24;55.41
63405;BME280;49541;57.840;12.306;2023-06-14T04:32:30;101341.00;;;14.37;55.81
63405;BME280;49541;57.840;12.306;2023-06-14T04:37:33;101340.47;;;14.72;61.46
63405;BME280;49541;57.840;12.306;2023-06-14T04:42:34;101341.56;;;14.80;61.19
63405;BME280;49541;57.840;12.306;2023-06-14T04:47:36;101353.69;;;15.03;57.41
63405;BME280;49541;57.840;12.306;2023-06-14T04:52:37;101349.34;;;15.49;55.45
63405;BME280;49541;57.840;12.306;2023-06-14T04:57:37;101351.06;;;15.41;54.05
63405;BME280;49541;57.840;12.306;2023-06-14T05:02:38;101355.72;;;15.86;57.45
63405;BME280;49541;57.840;12.306;2023-06-14T05:07:38;101349.41;;;15.77;56.29
63405;BME280;49541;57.840;12.306;2023-06-14T05:12:39;101346.53;;;16.06;57.85
63405;BME280;49541;57.840;12.306;2023-06-14T05:17:39;101349.06;;;16.89;58.82
63405;BME280;49541;57.840;12.306;2023-06-14T05:22:40;101352.50;;;16.82;54.17
63405;BME280;49541;57.840;12.306;2023-06-14T05:27:40;101356.03;;;17.00;57.31
63405;BME280;49541;57.840;12.306;2023-06-14T05:32:41;101357.69;;;18.22;55.55
63405;BME280;49541;57.840;12.306;2023-06-14T05:37:42;101369.19;;;17.64;56.09
63405;BME280;49541;57.840;12.306;2023-06-14T05:42:42;101366.19;;;18.76;54.64
63405;BME280;49541;57.840;12.306;2023-06-14T05:47:42;101368.59;;;19.04;54.36
63405;BME280;49541;57.840;12.306;2023-06-14T05:52:42;101364.59;;;19.64;52.23
63405;BME280;49541;57.840;12.306;2023-06-14T05:57:42;101366.09;;;19.67;52.71
63405;BME280;49541;57.840;12.306;2023-06-14T06:02:43;101368.38;;;19.30;50.38
63405;BME280;49541;57.840;12.306;2023-06-14T06:07:43;101366.00;;;19.91;52.21
63405;BME280;49541;57.840;12.306;2023-06-14T06:12:47;101375.25;;;19.49;53.72
63405;BME280;49541;57.840;12.306;2023-06-14T06:17:48;101368.66;;;20.62;50.72
63405;BME280;49541;57.840;12.306;2023-06-14T06:22:48;101362.28;;;20.78;49.58
63405;BME280;49541;57.840;12.306;2023-06-14T06:27:48;101367.28;;;20.12;51.98
63405;BME280;49541;57.840;12.306;2023-06-14T06:32:49;101364.81;;;21.17;48.84
63405;BME280;49541;57.840;12.306;2023-06-14T06:37:49;101378.88;;;21.80;47.46
63405;BME280;49541;57.840;12.306;2023-06-14T06:42:49;101379.09;;;21.11;47.56
63405;BME280;49541;57.840;12.306;2023-06-14T06:47:50;101376.50;;;21.33;48.16
63405;BME280;49541;57.840;12.306;2023-06-14T06:52:50;101373.53;;;21.87;45.72
63405;BME280;49541;57.840;12.306;2023-06-14T06:57:51;101380.94;;;22.44;44.25
63405;BME280;49541;57.840;12.306;2023-06-14T07:02:52;101383.47;;;22.46;43.96
63405;BME280;49541;57.840;12.306;2023-06-14T07:07:56;101376.03;;;22.55;43.62
63405;BME280;49541;57.840;12.306;2023-06-14T07:12:56;101376.03;;;22.76;42.61
63405;BME280;49541;57.840;12.306;2023-06-14T07:17:56;101375.56;;;22.94;42.21
63405;BME280;49541;57.840;12.306;2023-06-14T07:22:59;101373.47;;;24.29;36.81
63405;BME280;49541;57.840;12.306;2023-06-14T07:28:00;101381.78;;;23.73;39.40
63405;BME280;49541;57.840;12.306;2023-06-14T07:33:00;101385.13;;;24.09;39.31
63405;BME280;49541;57.840;12.306;2023-06-14T07:38:00;101378.56;;;24.52;37.98
63405;BME280;49541;57.840;12.306;2023-06-14T07:43:00;101382.16;;;24.59;38.04
63405;BME280;49541;57.840;12.306;2023-06-14T07:48:02;101383.81;;;24.53;38.11
63405;BME280;49541;57.840;12.306;2023-06-14T07:53:02;101385.13;;;25.04;36.26
63405;BME280;49541;57.840;12.306;2023-06-14T07:58:03;101384.91;;;25.32;37.32
63405;BME280;49541;57.840;12.306;2023-06-14T08:03:03;101384.06;;;25.39;36.48
63405;BME280;49541;57.840;12.306;2023-06-14T08:08:04;101383.16;;;25.71;36.25
63405;BME280;49541;57.840;12.306;2023-06-14T08:13:04;101385.31;;;26.14;35.29
63405;BME280;49541;57.840;12.306;2023-06-14T08:18:04;101391.28;;;26.36;34.97
63405;BME280;49541;57.840;12.306;2023-06-14T08:23:04;101393.69;;;27.15;32.54
63405;BME280;49541;57.840;12.306;2023-06-14T08:28:05;101391.66;;;27.04;32.17
63405;BME280;49541;57.840;12.306;2023-06-14T08:33:05;101398.78;;;27.36;31.16
63405;BME280;49541;57.840;12.306;2023-06-14T08:38:05;101396.00;;;27.80;29.74
63405;BME280;49541;57.840;12.306;2023-06-14T08:43:05;101404.81;;;28.01;28.91
63405;BME280;49541;57.840;12.306;2023-06-14T08:48:06;101403.31;;;28.35;26.70
63405;BME280;49541;57.840;12.306;2023-06-14T08:53:07;101405.94;;;28.60;27.17
63405;BME280;49541;57.840;12.306;2023-06-14T08:58:10;101393.47;;;28.76;26.34
63405;BME280;49541;57.840;12.306;2023-06-14T09:03:14;101386.38;;;28.98;27.69
63405;BME280;49541;57.840;12.306;2023-06-14T09:08:14;101378.16;;;29.34;23.13
63405;BME280;49541;57.840;12.306;2023-06-14T09:13:16;101383.03;;;29.67;24.75
63405;BME280;49541;57.840;12.306;2023-06-14T09:18:17;101379.47;;;29.78;20.03
63405;BME280;49541;57.840;12.306;2023-06-14T09:23:20;101373.06;;;30.42;20.79
63405;BME280;49541;57.840;12.306;2023-06-14T09:28:26;101372.66;;;30.50;21.61
63405;BME280;49541;57.840;12.306;2023-06-14T09:33:26;101377.59;;;30.99;21.37
63405;BME280;49541;57.840;12.306;2023-06-14T09:38:27;101374.00;;;31.49;20.80
63405;BME280;49541;57.840;12.306;2023-06-14T09:43:27;101370.13;;;31.94;18.24
63405;BME280;49541;57.840;12.306;2023-06-14T09:48:28;101362.72;;;31.95;18.70
63405;BME280;49541;57.840;12.306;2023-06-14T09:53:29;101362.13;;;32.15;18.33
63405;BME280;49541;57.840;12.306;2023-06-14T09:58:30;101361.75;;;32.55;17.71
63405;BME280;49541;57.840;12.306;2023-06-14T10:03:30;101356.81;;;32.57;17.40
63405;BME280;49541;57.840;12.306;2023-06-14T10:08:31;101347.63;;;32.52;18.72
63405;BME280;49541;57.840;12.306;2023-06-14T10:13:33;101341.31;;;32.89;17.55
63405;BME280;49541;57.840;12.306;2023-06-14T10:23:50;101331.44;;;33.93;17.12
63405;BME280;49541;57.840;12.306;2023-06-14T10:29:00;101336.75;;;34.46;16.82
63405;BME280;49541;57.840;12.306;2023-06-14T10:34:01;101330.97;;;34.32;17.93
63405;BME280;49541;57.840;12.306;2023-06-14T10:39:05;101332.38;;;34.55;18.08
63405;BME280;49541;57.840;12.306;2023-06-14T10:49:42;101331.75;;;35.30;17.21
63405;BME280;49541;57.840;12.306;2023-06-14T11:00:04;101320.41;;;35.97;17.13
63405;BME280;49541;57.840;12.306;2023-06-14T11:05:16;101314.19;;;37.13;15.71
63405;BME280;49541;57.840;12.306;2023-06-14T11:10:25;101313.34;;;37.13;15.04
63405;BME280;49541;57.840;12.306;2023-06-14T11:15:34;101309.91;;;37.45;16.05
63405;BME280;49541;57.840;12.306;2023-06-14T11:20:35;101291.53;;;38.11;14.82
63405;BME280;49541;57.840;12.306;2023-06-14T11:25:35;101290.63;;;38.16;15.28
63405;BME280;49541;57.840;12.306;2023-06-14T11:30:35;101286.44;;;38.51;15.52
63405;BME280;49541;57.840;12.306;2023-06-14T11:35:36;101279.72;;;38.19;15.62
63405;BME280;49541;57.840;12.306;2023-06-14T11:40:37;101269.31;;;39.18;15.34
63405;BME280;49541;57.840;12.306;2023-06-14T11:45:38;101267.75;;;38.84;14.75
63405;BME280;49541;57.840;12.306;2023-06-14T11:50:39;101266.78;;;37.53;15.99
63405;BME280;49541;57.840;12.306;2023-06-14T11:55:39;101263.75;;;38.11;15.17
63405;BME280;49541;57.840;12.306;2023-06-14T12:00:40;101265.38;;;38.78;14.91
63405;BME280;49541;57.840;12.306;2023-06-14T12:05:41;101262.44;;;38.22;15.34
63405;BME280;49541;57.840;12.306;2023-06-14T12:10:42;101253.84;;;38.84;15.70
63405;BME280;49541;57.840;12.306;2023-06-14T12:15:53;101260.06;;;38.95;14.93
63405;BME280;49541;57.840;12.306;2023-06-14T12:20:53;101259.22;;;38.95;14.83
63405;BME280;49541;57.840;12.306;2023-06-14T12:25:53;101251.88;;;39.54;13.78
63405;BME280;49541;57.840;12.306;2023-06-14T12:30:54;101258.97;;;40.19;13.82
63405;BME280;49541;57.840;12.306;2023-06-14T12:35:55;101244.91;;;40.78;13.69
63405;BME280;49541;57.840;12.306;2023-06-14T12:40:56;101248.41;;;40.92;13.84
63405;BME280;49541;57.840;12.306;2023-06-14T12:45:58;101235.59;;;40.91;14.03
63405;BME280;49541;57.840;12.306;2023-06-14T12:50:59;101240.69;;;39.04;14.29
63405;BME280;49541;57.840;12.306;2023-06-14T12:55:59;101236.44;;;40.07;14.21
63405;BME280;49541;57.840;12.306;2023-06-14T13:00:59;101230.38;;;39.18;14.27
63405;BME280;49541;57.840;12.306;2023-06-14T13:06:04;101228.81;;;39.76;14.28
63405;BME280;49541;57.840;12.306;2023-06-14T13:11:04;101219.06;;;41.12;13.68
63405;BME280;49541;57.840;12.306;2023-06-14T13:16:04;101210.94;;;41.42;13.20
63405;BME280;49541;57.840;12.306;2023-06-14T13:21:05;101226.69;;;41.55;12.56
63405;BME280;49541;57.840;12.306;2023-06-14T13:26:05;101217.22;;;40.59;12.94
63405;BME280;49541;57.840;12.306;2023-06-14T13:31:05;101201.81;;;40.53;13.35
63405;BME280;49541;57.840;12.306;2023-06-14T13:36:05;101195.84;;;41.78;12.44
63405;BME280;49541;57.840;12.306;2023-06-14T13:41:05;101188.09;;;42.01;12.27
63405;BME280;49541;57.840;12.306;2023-06-14T13:46:06;101196.16;;;40.76;13.72
63405;BME280;49541;57.840;12.306;2023-06-14T13:51:06;101193.50;;;41.28;13.93
63405;BME280;49541;57.840;12.306;2023-06-14T13:56:07;101193.19;;;41.38;13.54
63405;BME280;49541;57.840;12.306;2023-06-14T14:01:07;101182.22;;;41.59;13.83
63405;BME280;49541;57.840;12.306;2023-06-14T14:06:08;101181.84;;;41.34;13.24
63405;BME280;49541;57.840;12.306;2023-06-14T14:11:09;101182.19;;;41.16;14.30
63405;BME280;49541;57.840;12.306;2023-06-14T14:16:10;101169.91;;;40.77;13.54
63405;BME280;49541;57.840;12.306;2023-06-14T14:21:10;101158.03;;;39.55;14.95
63405;BME280;49541;57.840;12.306;2023-06-14T14:26:11;101165.25;;;39.05;15.91
63405;BME280;49541;57.840;12.306;2023-06-14T14:31:12;101169.84;;;38.41;15.97
63405;BME280;49541;57.840;12.306;2023-06-14T14:36:12;101161.91;;;37.30;16.19
63405;BME280;49541;57.840;12.306;2023-06-14T14:41:13;101153.63;;;36.58;17.70
63405;BME280;49541;57.840;12.306;2023-06-14T14:46:13;101154.06;;;35.83;18.42
63405;BME280;49541;57.840;12.306;2023-06-14T14:51:13;101154.59;;;35.45;19.46
63405;BME280;49541;57.840;12.306;2023-06-14T14:56:14;101146.19;;;36.29;18.63
63405;BME280;49541;57.840;12.306;2023-06-14T15:01:14;101141.81;;;36.77;18.33
63405;BME280;49541;57.840;12.306;2023-06-14T15:06:14;101134.00;;;37.60;17.05
63405;BME280;49541;57.840;12.306;2023-06-14T15:11:15;101142.53;;;37.06;17.25
63405;BME280;49541;57.840;12.306;2023-06-14T15:16:15;101133.03;;;36.16;17.28
63405;BME280;49541;57.840;12.306;2023-06-14T15:21:15;101137.94;;;35.90;17.73
63405;BME280;49541;57.840;12.306;2023-06-14T15:26:16;101133.50;;;35.00;19.07
63405;BME280;49541;57.840;12.306;2023-06-14T15:31:16;101128.16;;;34.49;20.07
63405;BME280;49541;57.840;12.306;2023-06-14T15:36:16;101131.81;;;33.93;20.57
63405;BME280;49541;57.840;12.306;2023-06-14T15:41:16;101128.22;;;33.87;20.99
63405;BME280;49541;57.840;12.306;2023-06-14T15:46:16;101123.22;;;34.35;20.71
63405;BME280;49541;57.840;12.306;2023-06-14T15:51:17;101128.91;;;34.80;21.65
63405;BME280;49541;57.840;12.306;2023-06-14T15:56:17;101119.81;;;34.59;21.41
63405;BME280;49541;57.840;12.306;2023-06-14T16:01:17;101116.25;;;34.58;20.92
63405;BME280;49541;57.840;12.306;2023-06-14T16:06:17;101113.06;;;33.95;20.30
63405;BME280;49541;57.840;12.306;2023-06-14T16:11:18;101109.59;;;34.75;19.68
63405;BME280;49541;57.840;12.306;2023-06-14T16:16:18;101114.03;;;35.70;18.54
63405;BME280;49541;57.840;12.306;2023-06-14T16:21:20;101104.81;;;35.40;18.72
63405;BME280;49541;57.840;12.306;2023-06-14T16:26:20;101109.16;;;35.02;19.23
63405;BME280;49541;57.840;12.306;2023-06-14T16:31:21;101109.63;;;34.64;19.69
63405;BME280;49541;57.840;12.306;2023-06-14T16:36:22;101110.19;;;34.51;20.41
63405;BME280;49541;57.840;12.306;2023-06-14T16:41:22;101112.72;;;34.37;20.80
63405;BME280;49541;57.840;12.306;2023-06-14T16:46:27;101103.06;;;33.32;21.70
63405;BME280;49541;57.840;12.306;2023-06-14T16:51:27;101102.44;;;33.15;22.46
63405;BME280;49541;57.840;12.306;2023-06-14T16:56:27;101100.84;;;33.29;21.92
63405;BME280;49541;57.840;12.306;2023-06-14T17:01:28;101097.50;;;33.07;22.70
63405;BME280;49541;57.840;12.306;2023-06-14T17:06:29;101101.84;;;33.02;22.09
63405;BME280;49541;57.840;12.306;2023-06-14T17:11:29;101105.88;;;32.74;21.48
63405;BME280;49541;57.840;12.306;2023-06-14T17:16:29;101100.34;;;31.89;21.71
63405;BME280;49541;57.840;12.306;2023-06-14T17:21:30;101093.06;;;30.91;21.97
63405;BME280;49541;57.840;12.306;2023-06-14T17:26:30;101099.47;;;30.80;21.74
63405;BME280;49541;57.840;12.306;2023-06-14T17:31:32;101094.41;;;30.50;22.05
63405;BME280;49541;57.840;12.306;2023-06-14T17:36:32;101090.97;;;30.37;22.11
63405;BME280;49541;57.840;12.306;2023-06-14T17:41:32;101092.06;;;30.02;22.22
63405;BME280;49541;57.840;12.306;2023-06-14T17:46:32;101095.44;;;30.27;22.26
63405;BME280;49541;57.840;12.306;2023-06-14T17:51:32;101090.31;;;29.96;23.09
63405;BME280;49541;57.840;12.306;2023-06-14T17:56:33;101086.66;;;29.91;22.21
63405;BME280;49541;57.840;12.306;2023-06-14T18:01:33;101099.56;;;29.90;23.11
63405;BME280;49541;57.840;12.306;2023-06-14T18:06:33;101098.47;;;30.08;22.62
63405;BME280;49541;57.840;12.306;2023-06-14T18:11:33;101098.81;;;29.78;22.07
63405;BME280;49541;57.840;12.306;2023-06-14T18:16:33;101104.47;;;29.88;22.71
63405;BME280;49541;57.840;12.306;2023-06-14T18:21:34;101101.53;;;30.12;22.46
63405;BME280;49541;57.840;12.306;2023-06-14T18:26:35;101104.75;;;30.42;21.99
63405;BME280;49541;57.840;12.306;2023-06-14T18:31:35;101104.06;;;29.79;22.54
63405;BME280;49541;57.840;12.306;2023-06-14T18:36:35;101116.03;;;29.61;22.80
63405;BME280;49541;57.840;12.306;2023-06-14T18:41:37;101115.03;;;29.51;22.77
63405;BME280;49541;57.840;12.306;2023-06-14T18:46:39;101114.28;;;29.38;23.11
63405;BME280;49541;57.840;12.306;2023-06-14T18:51:39;101118.00;;;29.32;22.88
63405;BME280;49541;57.840;12.306;2023-06-14T18:56:40;101118.34;;;28.95;23.62
63405;BME280;49541;57.840;12.306;2023-06-14T19:01:40;101114.59;;;28.49;24.27
63405;BME280;49541;57.840;12.306;2023-06-14T19:06:40;101110.06;;;28.19;24.11
63405;BME280;49541;57.840;12.306;2023-06-14T19:11:40;101111.72;;;27.97;24.51
63405;BME280;49541;57.840;12.306;2023-06-14T19:16:42;101127.63;;;27.46;24.80
63405;BME280;49541;57.840;12.306;2023-06-14T19:21:42;101131.44;;;27.45;24.96
63405;BME280;49541;57.840;12.306;2023-06-14T19:26:43;101141.56;;;27.56;24.81
63405;BME280;49541;57.840;12.306;2023-06-14T19:31:43;101136.69;;;27.10;25.15
63405;BME280;49541;57.840;12.306;2023-06-14T19:36:43;101136.41;;;26.81;25.80
63405;BME280;49541;57.840;12.306;2023-06-14T19:41:43;101140.44;;;26.60;26.04
63405;BME280;49541;57.840;12.306;2023-06-14T19:46:44;101138.31;;;26.62;25.68
63405;BME280;49541;57.840;12.306;2023-06-14T19:51:44;101143.22;;;26.28;26.41
63405;BME280;49541;57.840;12.306;2023-06-14T19:56:44;101137.06;;;26.14;26.60
63405;BME280;49541;57.840;12.306;2023-06-14T20:01:45;101137.53;;;26.05;26.36
63405;BME280;49541;57.840;12.306;2023-06-14T20:06:45;101139.06;;;26.26;26.65
63405;BME280;49541;57.840;12.306;2023-06-14T20:11:45;101146.09;;;25.90;26.98
63405;BME280;49541;57.840;12.306;2023-06-14T20:16:45;101156.28;;;26.01;26.81
63405;BME280;49541;57.840;12.306;2023-06-14T20:21:46;101157.06;;;25.70;27.10
63405;BME280;49541;57.840;12.306;2023-06-14T20:26:47;101161.88;;;25.74;27.18
63405;BME280;49541;57.840;12.306;2023-06-14T20:31:48;101166.78;;;25.59;27.49
63405;BME280;49541;57.840;12.306;2023-06-14T20:36:48;101168.91;;;25.57;27.74
63405;BME280;49541;57.840;12.306;2023-06-14T20:41:48;101171.38;;;25.65;28.66
63405;BME280;49541;57.840;12.306;2023-06-14T20:46:49;101170.69;;;25.70;28.46
63405;BME280;49541;57.840;12.306;2023-06-14T20:51:49;101168.47;;;25.60;29.22
63405;BME280;49541;57.840;12.306;2023-06-14T20:56:52;101171.94;;;25.36;29.40
63405;BME280;49541;57.840;12.306;2023-06-14T21:01:52;101166.19;;;24.99;30.25
63405;BME280;49541;57.840;12.306;2023-06-14T21:06:53;101176.06;;;24.86;30.42
63405;BME280;49541;57.840;12.306;2023-06-14T21:11:53;101169.88;;;24.52;29.21
63405;BME280;49541;57.840;12.306;2023-06-14T21:16:53;101169.88;;;24.52;31.17
63405;BME280;49541;57.840;12.306;2023-06-14T21:21:53;101167.75;;;24.41;31.91
63405;BME280;49541;57.840;12.306;2023-06-14T21:26:54;101179.91;;;24.05;31.40
63405;BME280;49541;57.840;12.306;2023-06-14T21:31:55;101174.03;;;23.88;32.60
63405;BME280;49541;57.840;12.306;2023-06-14T21:36:55;101184.25;;;23.80;32.47
63405;BME280;49541;57.840;12.306;2023-06-14T21:41:55;101183.78;;;23.69;33.19
63405;BME280;49541;57.840;12.306;2023-06-14T21:46:55;101184.38;;;23.58;33.64
63405;BME280;49541;57.840;12.306;2023-06-14T21:51:56;101173.81;;;23.28;31.87
63405;BME280;49541;57.840;12.306;2023-06-14T21:56:56;101179.25;;;23.28;33.93
63405;BME280;49541;57.840;12.306;2023-06-14T22:01:56;101176.06;;;23.12;33.67
63405;BME280;49541;57.840;12.306;2023-06-14T22:06:56;101173.66;;;22.95;35.08
63405;BME280;49541;57.840;12.306;2023-06-14T22:11:57;101175.09;;;22.91;34.76
63405;BME280;49541;57.840;12.306;2023-06-14T22:17:00;101177.94;;;22.48;35.19
63405;BME280;49541;57.840;12.306;2023-06-14T22:22:01;101164.97;;;22.43;34.47
63405;BME280;49541;57.840;12.306;2023-06-14T22:27:02;101172.34;;;22.56;35.61
63405;BME280;49541;57.840;12.306;2023-06-14T22:32:04;101176.91;;;22.49;33.45
63405;BME280;49541;57.840;12.306;2023-06-14T22:37:05;101180.13;;;22.31;35.15
63405;BME280;49541;57.840;12.306;2023-06-14T22:42:06;101189.00;;;22.46;37.58
63405;BME280;49541;57.840;12.306;2023-06-14T22:47:06;101180.75;;;22.12;36.75
63405;BME280;49541;57.840;12.306;2023-06-14T22:52:10;101176.28;;;22.04;36.33
63405;BME280;49541;57.840;12.306;2023-06-14T22:57:10;101178.63;;;21.85;37.36
63405;BME280;49541;57.840;12.306;2023-06-14T23:02:17;101176.75;;;21.86;35.07
63405;BME280;49541;57.840;12.306;2023-06-14T23:07:18;101174.16;;;21.99;38.53
63405;BME280;49541;57.840;12.306;2023-06-14T23:12:21;101177.13;;;21.83;38.88
63405;BME280;49541;57.840;12.306;2023-06-14T23:17:22;101172.34;;;21.63;38.90
63405;BME280;49541;57.840;12.306;2023-06-14T23:22:23;101173.47;;;21.91;37.41
63405;BME280;49541;57.840;12.306;2023-06-14T23:27:27;101177.34;;;21.81;39.35
63405;BME280;49541;57.840;12.306;2023-06-14T23:32:27;101174.47;;;21.68;39.08
63405;BME280;49541;57.840;12.306;2023-06-14T23:37:29;101172.34;;;21.63;38.95
63405;BME280;49541;57.840;12.306;2023-06-14T23:42:30;101173.88;;;21.51;39.77
63405;BME280;49541;57.840;12.306;2023-06-14T23:47:31;101180.13;;;21.37;38.96
63405;BME280;49541;57.840;12.306;2023-06-14T23:52:31;101167.91;;;21.41;39.43
63405;BME280;49541;57.840;12.306;2023-06-14T23:57:32;101165.63;;;20.63;40.84
